Utah County RPA :: 3FORTHALL

liberation: 2021-09-11  08:00     latitude: 43.030017     longitude: -112.343767 58 birds
# LOFT PRING MILES ARRIVAL SPEED ToWin
1 Peery Loft AU21-UCA-0102 208.432 2021-09-11 12:36:46.285 1325.430 00:00:00
2 Peery Loft AU21-UCA-0139 208.432 2021-09-11 12:36:48.186 1325.278 00:00:02
3 Peery Loft AU21-UCA-0110 208.432 2021-09-11 12:36:50.380 1325.103 00:00:04
4 Peery Loft AU21-UCA-0111 208.432 2021-09-11 12:36:51.262 1325.032 00:00:05
5 Peery Loft AU21-NEBO-0308 208.432 2021-09-11 12:38:19.866 1318.002 00:01:34
6 Peery Loft AU21-UCA-0112 208.432 2021-09-11 12:38:26.789 1317.456 00:01:41
7 Peery Loft AU21-UCA-0149 208.432 2021-09-11 12:38:28.512 1317.320 00:01:42
8 Craig Allred AU21-AFPL-0026 204.503 2021-09-11 12:33:15.471 1317.161 00:01:42
9 Craig Allred AU21-AFPL-0019 204.503 2021-09-11 12:33:17.972 1316.960 00:01:45
10 Craig Allred AU21-AFPL-11 204.503 2021-09-11 12:33:19.018 1316.876 00:01:46
11 Craig Allred AU21-AFPL-0045 204.503 2021-09-11 12:33:19.682 1316.823 00:01:46
12 Craig Allred AU21-AFPL-170 204.503 2021-09-11 12:35:35.633 1305.997 00:04:02
13 Craig Allred AU21-AFPL-0054 204.503 2021-09-11 12:35:42.017 1305.493 00:04:09
14 Peery Loft AU21-NEBO-0306 208.432 2021-09-11 12:41:13.405 1304.447 00:04:27
15 Peery Loft AU21-UCA-0104 208.432 2021-09-11 12:41:17.409 1304.138 00:04:31
16 Craig Allred AU21-AFPL-0034 204.503 2021-09-11 12:38:22.298 1292.965 00:06:49
17 Craig Allred AU21-AFPL-0021 204.503 2021-09-11 12:38:26.329 1292.653 00:06:53
18 Craig Allred AU21-AFPL-176 204.503 2021-09-11 12:42:07.355 1275.774 00:10:34
19 Craig Allred AU21-AFPL-181 204.503 2021-09-11 12:46:22.142 1256.856 00:14:49
20 Peery Loft AU21-UCA-0143 208.432 2021-09-11 12:52:07.736 1255.750 00:15:21
21 Craig Allred AU21-AFPL-153 204.503 2021-09-11 12:48:55.787 1245.717 00:17:23
22 Peery Loft AU21-UCA-0101 208.432 2021-09-11 12:54:58.935 1243.604 00:18:13
23 Iron Will AU21-UCA-0344 208.068 2021-09-11 12:58:53.191 1225.211 00:22:36
24 Iron Will AU21-UCA-0348 208.068 2021-09-11 12:58:54.524 1225.120 00:22:37
25 Craig Allred AU21-AFPL-167 204.503 2021-09-11 12:55:16.971 1218.915 00:23:44
26 Craig Allred AU21-AFPL-194 204.503 2021-09-11 13:07:01.895 1172.272 00:35:29
27 Craig Allred AU21-AFPL-187 204.503 2021-09-11 13:07:26.440 1170.713 00:35:53
28 Peery Loft AU21-UCA-0124 208.432 2021-09-11 13:19:11.841 1149.261 00:42:26
29 Peery Loft AU21-UCA-0115 208.432 2021-09-11 13:19:13.017 1149.190 00:42:27
30 Ross Johnson AU21-UCA-59 203.202 2021-09-11 13:13:01.717 1142.503 00:43:12
31 Ross Johnson AU21-UCA-31 203.202 2021-09-11 13:15:45.146 1132.648 00:45:56
32 Hayden Johnson AU21-UCA-207 211.898 2021-09-11 14:16:12.682 991.307 01:34:50
33 Iron Will AU21-UCA-0365 208.068 2021-09-11 14:10:35.913 988.129 01:34:19
34 Peery Loft AU21-NEBO-0316 208.432 2021-09-11 14:21:51.717 960.664 01:45:05
35 Ross Johnson AU21-UCA-2 203.202 2021-09-11 14:21:58.624 936.277 01:52:09
36 Craig Allred AU21-AFPL-0056 204.503 2021-09-11 14:30:23.203 921.970 01:58:50
37 Ross Johnson AU21-UCA-15 203.202 2021-09-11 15:30:08.683 794.492 03:00:19
38 Craig Allred AU21-AFPL-0027 204.503 2021-09-11 17:28:48.971 632.761 04:57:16
39 Craig Allred AU21-AFPL-0017 204.503 2021-09-11 17:28:50.578 632.731 04:57:17
40 Craig Allred AU21-AFPL-0006 204.503 2021-09-11 17:59:53.294 599.986 05:28:20
41 Iron Will AU21-UCA-335 208.068 2021-09-11 19:02:18.792 552.909 06:26:02
Craig Allred AU21-AFPL-0051 0 0000-00-00 00:00:00.000 0.000 00:00:00
Craig Allred AU21-AFPL-152 0 0000-00-00 00:00:00.000 0.000 00:00:00
Craig Allred AU21-AFPL-159 0 0000-00-00 00:00:00.000 0.000 00:00:00
Craig Allred AU21-AFPL-178 0 0000-00-00 00:00:00.000 0.000 00:00:00
Craig Allred AU21-GHC-6847 0 0000-00-00 00:00:00.000 0.000 00:00:00
Hayden Johnson AU21-UCA-206 0 0000-00-00 00:00:00.000 0.000 00:00:00
Hayden Johnson AU21-UCA-228 0 0000-00-00 00:00:00.000 0.000 00:00:00
Hayden Johnson AU21-UCA-233 0 0000-00-00 00:00:00.000 0.000 00:00:00
Iron Will AU21-UCA-0303 0 0000-00-00 00:00:00.000 0.000 00:00:00
Iron Will AU21-UCA-0327 0 0000-00-00 00:00:00.000 0.000 00:00:00
Iron Will AU21-UCA-0356 0 0000-00-00 00:00:00.000 0.000 00:00:00
Peery Loft AU21-NEBO-0320 0 0000-00-00 00:00:00.000 0.000 00:00:00
Peery Loft AU21-UCA-0119 0 0000-00-00 00:00:00.000 0.000 00:00:00
Ross Johnson AU21-UCA-22 0 0000-00-00 00:00:00.000 0.000 00:00:00
Ross Johnson AU21-UCA-33 0 0000-00-00 00:00:00.000 0.000 00:00:00
Ross Johnson AU21-UCA-6 0 0000-00-00 00:00:00.000 0.000 00:00:00
Ross Johnson AU21-UCA-68 0 0000-00-00 00:00:00.000 0.000 00:00:00